createdAt,value
2022-09-10T00:00:34.439Z,5.20
2022-09-10T00:01:06.724Z,4.97
2022-09-10T00:01:39.755Z,5.18
2022-09-10T00:02:11.672Z,4.95
2022-09-10T00:02:45.249Z,4.45
2022-09-10T00:03:17.210Z,4.75
2022-09-10T00:03:50.117Z,5.28
2022-09-10T00:04:22.074Z,4.78
2022-09-10T00:04:53.895Z,5.00
2022-09-10T00:05:25.749Z,5.22
2022-09-10T00:05:57.566Z,5.18
2022-09-10T00:06:33.070Z,5.35
2022-09-10T00:07:04.932Z,5.12
2022-09-10T00:07:37.754Z,4.90
2022-09-10T00:08:10.473Z,4.82
2022-09-10T00:08:42.398Z,5.05
2022-09-10T00:09:14.268Z,5.10
2022-09-10T00:09:46.177Z,4.80
2022-09-10T00:10:18.712Z,4.80
2022-09-10T00:10:51.934Z,5.20
2022-09-10T00:11:25.822Z,5.00
2022-09-10T00:11:58.178Z,4.68
2022-09-10T00:12:30.029Z,4.80
2022-09-10T00:13:01.838Z,5.32
2022-09-10T00:13:34.372Z,4.65
2022-09-10T00:14:07.737Z,4.50
2022-09-10T00:14:39.661Z,4.70
2022-09-10T00:15:12.068Z,4.45
2022-09-10T00:15:47.918Z,4.78
2022-09-10T00:16:19.852Z,4.80
2022-09-10T00:16:52.135Z,4.93
2022-09-10T00:17:24.437Z,4.72
2022-09-10T00:17:56.300Z,4.50
2022-09-10T00:18:29.499Z,4.75
2022-09-10T00:19:02.210Z,4.30
2022-09-10T00:19:34.105Z,4.37
2022-09-10T00:20:06.913Z,4.93
2022-09-10T00:20:47.912Z,4.35
2022-09-10T00:21:23.538Z,4.80
2022-09-10T00:21:55.366Z,4.60
2022-09-10T00:22:27.617Z,4.60
2022-09-10T00:22:59.471Z,4.70
2022-09-10T00:23:31.300Z,4.62
2022-09-10T00:24:05.220Z,4.95
2022-09-10T00:24:37.097Z,5.32
2022-09-10T00:25:09.146Z,5.15
2022-09-10T00:25:41.142Z,5.18
2022-09-10T00:26:26.529Z,5.18
2022-09-10T00:26:59.605Z,5.60
2022-09-10T00:27:31.803Z,5.53
2022-09-10T00:28:03.758Z,5.45
2022-09-10T00:28:35.623Z,6.10
2022-09-10T00:29:10.954Z,5.18
2022-09-10T00:29:42.772Z,5.60
2022-09-10T00:30:14.696Z,5.57
2022-09-10T00:30:49.828Z,5.62
2022-09-10T00:31:23.454Z,5.72
2022-09-10T00:31:55.495Z,5.20
2022-09-10T00:32:27.572Z,5.20
2022-09-10T00:33:00.414Z,5.45
2022-09-10T00:33:33.651Z,5.37
2022-09-10T00:34:06.284Z,5.72
2022-09-10T00:34:38.399Z,5.32
2022-09-10T00:35:10.282Z,5.85
2022-09-10T00:35:42.187Z,5.18
2022-09-10T00:36:19.726Z,4.93
2022-09-10T00:36:51.623Z,5.87
2022-09-10T00:37:23.558Z,5.47
2022-09-10T00:37:55.468Z,5.68
2022-09-10T00:38:32.128Z,5.32
2022-09-10T00:39:10.527Z,5.70
2022-09-10T00:39:42.552Z,5.87
2022-09-10T00:40:16.643Z,5.70
2022-09-10T00:40:48.559Z,5.82
2022-09-10T00:41:22.939Z,5.78
2022-09-10T00:41:55.780Z,5.40
2022-09-10T00:42:28.744Z,5.62
2022-09-10T00:43:00.692Z,5.62
2022-09-10T00:43:48.820Z,5.80
2022-09-10T00:44:41.739Z,5.72
2022-09-10T00:45:19.445Z,5.57
2022-09-10T00:45:54.761Z,5.60
2022-09-10T00:46:43.895Z,5.50
2022-09-10T00:47:27.378Z,5.40
2022-09-10T00:48:14.307Z,5.55
2022-09-10T00:48:46.475Z,5.07
2022-09-10T00:49:31.710Z,5.78
2022-09-10T00:50:25.677Z,5.53
2022-09-10T00:51:04.947Z,5.40
2022-09-10T00:51:37.425Z,5.47
2022-09-10T00:52:10.096Z,5.78
2022-09-10T00:52:43.148Z,6.05
2022-09-10T00:53:18.311Z,5.57
2022-09-10T00:53:50.953Z,6.18
2022-09-10T00:54:25.541Z,6.18
2022-09-10T00:54:59.408Z,6.10
2022-09-10T00:55:35.095Z,5.78
2022-09-10T00:56:07.686Z,5.60
2022-09-10T00:56:39.923Z,5.60
2022-09-10T00:57:19.397Z,6.10
2022-09-10T00:57:54.861Z,5.62
2022-09-10T00:58:28.547Z,5.72
2022-09-10T00:59:02.556Z,5.90
2022-09-10T00:59:35.611Z,6.20
2022-09-10T01:00:11.894Z,5.97
2022-09-10T01:00:45.339Z,6.05
2022-09-10T01:01:19.180Z,5.78
2022-09-10T01:01:51.309Z,5.80
2022-09-10T01:02:23.228Z,5.70
2022-09-10T01:02:55.504Z,5.87
2022-09-10T01:03:32.080Z,6.03
2022-09-10T01:04:07.324Z,5.87
2022-09-10T01:04:40.275Z,6.18
2022-09-10T01:05:14.895Z,6.05
2022-09-10T01:05:49.017Z,6.03
2022-09-10T01:06:21.327Z,6.10
2022-09-10T01:06:54.396Z,6.25
2022-09-10T01:07:29.235Z,5.97
2022-09-10T01:08:01.220Z,5.68
2022-09-10T01:08:33.069Z,5.78
2022-09-10T01:09:06.473Z,5.65
2022-09-10T01:09:39.792Z,5.57
2022-09-10T01:10:21.716Z,6.15
2022-09-10T01:11:34.629Z,6.03
2022-09-10T01:12:49.293Z,5.32
2022-09-10T01:13:33.845Z,5.32
2022-09-10T01:14:09.829Z,5.70
2022-09-10T01:15:00.597Z,5.57
2022-09-10T01:15:47.866Z,5.47
2022-09-10T01:16:47.857Z,5.60
2022-09-10T01:17:56.232Z,5.18
2022-09-10T01:18:42.257Z,5.20
2022-09-10T01:19:17.068Z,5.68
2022-09-10T01:19:58.331Z,5.78
2022-09-10T01:20:45.513Z,5.12
2022-09-10T01:21:23.235Z,6.00
2022-09-10T01:22:20.274Z,5.53
2022-09-10T01:23:17.057Z,5.25
2022-09-10T01:24:11.740Z,5.28
2022-09-10T01:24:53.127Z,5.55
2022-09-10T01:25:37.705Z,5.82
2022-09-10T01:26:25.599Z,5.55
2022-09-10T01:27:16.200Z,5.43
2022-09-10T01:27:53.057Z,5.87
2022-09-10T01:28:37.822Z,5.93
2022-09-10T01:29:29.501Z,5.65
2022-09-10T01:30:12.520Z,6.18
2022-09-10T01:30:50.475Z,6.03
2022-09-10T01:31:31.445Z,5.82
2022-09-10T01:32:15.459Z,5.65
2022-09-10T01:33:10.269Z,6.18
2022-09-10T01:34:02.094Z,5.93
2022-09-10T01:34:41.779Z,6.07
2022-09-10T01:35:22.285Z,5.97
2022-09-10T01:35:59.018Z,6.60
2022-09-10T01:36:38.688Z,5.90
2022-09-10T01:37:18.191Z,5.87
2022-09-10T01:37:55.387Z,6.47
2022-09-10T01:38:38.483Z,5.57
2022-09-10T01:39:11.584Z,6.28
2022-09-10T01:39:45.322Z,6.20
2022-09-10T01:40:18.507Z,6.20
2022-09-10T01:40:52.761Z,6.07
2022-09-10T01:41:28.063Z,5.80
2022-09-10T01:42:00.223Z,6.03
2022-09-10T01:42:33.039Z,6.03
2022-09-10T01:43:10.177Z,6.37
2022-09-10T01:43:42.505Z,6.30
2022-09-10T01:44:44.343Z,6.90
2022-09-10T01:45:16.696Z,5.75
2022-09-10T01:45:51.816Z,6.03
2022-09-10T01:46:50.770Z,6.40
2022-09-10T01:47:51.363Z,5.97
2022-09-10T01:48:34.227Z,6.40
2022-09-10T01:49:06.104Z,6.43
2022-09-10T01:50:10.127Z,5.97
2022-09-10T01:50:53.827Z,5.95
2022-09-10T01:51:39.202Z,5.60
2022-09-10T01:52:12.188Z,5.53
2022-09-10T01:52:44.048Z,5.57
2022-09-10T01:53:44.509Z,6.43
2022-09-10T01:55:10.868Z,5.70
2022-09-10T01:56:00.204Z,5.72
2022-09-10T01:56:49.037Z,5.70
2022-09-10T01:57:53.013Z,6.10
2022-09-10T01:58:45.345Z,6.10
2022-09-10T01:59:35.829Z,5.87
2022-09-10T02:00:17.172Z,6.20
2022-09-10T02:01:06.384Z,5.72
2022-09-10T02:01:47.702Z,6.00
2022-09-10T02:02:26.989Z,5.32
2022-09-10T02:03:11.325Z,5.70
2022-09-10T02:03:47.886Z,6.30
2022-09-10T02:04:22.215Z,6.20
2022-09-10T02:04:55.331Z,6.68
2022-09-10T02:05:30.608Z,6.37
2022-09-10T02:06:06.006Z,5.95
2022-09-10T02:06:42.906Z,6.85
2022-09-10T02:07:17.865Z,6.28
2022-09-10T02:07:55.195Z,6.43
2022-09-10T02:08:32.613Z,6.55
2022-09-10T02:09:06.909Z,6.50
2022-09-10T02:09:39.094Z,6.22
2022-09-10T02:10:12.666Z,6.25
2022-09-10T02:10:56.143Z,6.35
2022-09-10T02:11:31.668Z,6.40
2022-09-10T02:12:04.580Z,7.05
2022-09-10T02:12:40.132Z,6.65
2022-09-10T02:13:12.693Z,7.35
2022-09-10T02:13:46.235Z,7.57
2022-09-10T02:14:21.774Z,6.95
2022-09-10T02:14:57.140Z,6.85
2022-09-10T02:15:31.191Z,7.12
2022-09-10T02:16:08.080Z,7.40
2022-09-10T02:16:44.647Z,7.28
2022-09-10T02:17:18.114Z,6.80
2022-09-10T02:17:50.204Z,7.28
2022-09-10T02:18:24.113Z,6.87
2022-09-10T02:18:57.575Z,6.57
2022-09-10T02:19:29.414Z,6.47
2022-09-10T02:20:04.547Z,6.90
2022-09-10T02:20:36.655Z,6.65
2022-09-10T02:21:10.390Z,7.43
2022-09-10T02:21:42.478Z,7.00
2022-09-10T02:22:15.487Z,7.53
2022-09-10T02:22:55.243Z,6.72
2022-09-10T02:23:32.932Z,7.87
2022-09-10T02:24:07.772Z,7.43
2022-09-10T02:24:39.592Z,7.60
2022-09-10T02:25:12.325Z,7.10
2022-09-10T02:25:45.415Z,7.50
2022-09-10T02:26:18.420Z,7.18
2022-09-10T02:26:51.116Z,7.68
2022-09-10T02:27:23.689Z,7.37
2022-09-10T02:27:56.532Z,7.90
2022-09-10T02:28:29.072Z,7.57
2022-09-10T02:29:01.939Z,7.03
2022-09-10T02:29:34.211Z,7.57
2022-09-10T02:30:07.309Z,7.85
2022-09-10T02:30:39.481Z,7.47
2022-09-10T02:31:12.859Z,8.00
2022-09-10T02:31:45.153Z,8.23
2022-09-10T02:32:17.421Z,8.07
2022-09-10T02:32:49.518Z,8.68
2022-09-10T02:33:21.916Z,8.50
2022-09-10T02:33:54.648Z,8.27
2022-09-10T02:34:27.940Z,7.87
2022-09-10T02:34:59.849Z,8.05
2022-09-10T02:35:32.709Z,7.97
2022-09-10T02:36:05.067Z,7.30
2022-09-10T02:36:37.386Z,7.82
2022-09-10T02:37:09.235Z,8.10
2022-09-10T02:37:43.165Z,7.60
2022-09-10T02:38:18.158Z,8.18
2022-09-10T02:38:50.288Z,7.80
2022-09-10T02:39:22.205Z,7.40
2022-09-10T02:39:55.889Z,8.43
2022-09-10T02:40:31.407Z,7.78
2022-09-10T02:41:03.528Z,7.32
2022-09-10T02:41:36.742Z,7.75
2022-09-10T02:42:08.875Z,7.90
2022-09-10T02:42:46.567Z,8.30
2022-09-10T02:43:18.884Z,8.20
2022-09-10T02:43:51.125Z,7.80
2022-09-10T02:44:22.984Z,7.78
2022-09-10T02:44:54.863Z,7.70
2022-09-10T02:45:27.489Z,7.22
2022-09-10T02:45:59.696Z,8.20
2022-09-10T02:46:31.875Z,7.68
2022-09-10T02:47:04.419Z,8.07
2022-09-10T02:47:36.276Z,7.43
2022-09-10T02:48:08.120Z,8.15
2022-09-10T02:48:40.467Z,7.80
2022-09-10T02:49:12.627Z,8.25
2022-09-10T02:49:45.860Z,8.02
2022-09-10T02:50:17.961Z,8.10
2022-09-10T02:50:50.337Z,7.62
2022-09-10T02:51:23.813Z,8.35
2022-09-10T02:51:56.060Z,7.72
2022-09-10T02:52:29.262Z,7.95
2022-09-10T02:53:01.406Z,7.45
2022-09-10T02:53:33.387Z,7.57
2022-09-10T02:54:06.044Z,7.45
2022-09-10T02:54:38.311Z,7.82
2022-09-10T02:55:10.169Z,7.10
2022-09-10T02:55:46.355Z,7.45
2022-09-10T02:56:21.298Z,7.85
2022-09-10T02:56:53.583Z,7.80
2022-09-10T02:57:25.918Z,8.15
2022-09-10T02:57:58.472Z,8.00
2022-09-10T02:58:31.456Z,8.82
2022-09-10T02:59:03.733Z,8.82
2022-09-10T02:59:35.889Z,8.30
2022-09-10T03:00:08.626Z,8.20
2022-09-10T03:00:40.946Z,7.80
2022-09-10T03:01:16.745Z,7.72
2022-09-10T03:01:51.191Z,8.02
2022-09-10T03:02:23.522Z,8.15
2022-09-10T03:03:00.921Z,7.43
2022-09-10T03:03:36.770Z,7.55
2022-09-10T03:04:09.211Z,8.60
2022-09-10T03:04:41.089Z,7.10
2022-09-10T03:05:13.058Z,8.10
2022-09-10T03:05:45.050Z,7.43
2022-09-10T03:06:16.977Z,7.78
2022-09-10T03:06:49.579Z,7.95
2022-09-10T03:07:21.494Z,8.35
2022-09-10T03:07:55.432Z,7.90
2022-09-10T03:08:27.390Z,8.45
2022-09-10T03:08:59.838Z,7.80
2022-09-10T03:09:31.874Z,7.97
2022-09-10T03:10:03.948Z,7.50
2022-09-10T03:10:35.975Z,8.18
2022-09-10T03:11:08.216Z,7.40
2022-09-10T03:11:40.783Z,7.40
2022-09-10T03:12:13.897Z,7.28
2022-09-10T03:12:45.838Z,7.43
2022-09-10T03:13:17.757Z,6.68
2022-09-10T03:13:50.589Z,7.05
2022-09-10T03:14:24.679Z,6.57
2022-09-10T03:14:58.091Z,6.65
2022-09-10T03:15:29.947Z,6.50
2022-09-10T03:16:04.069Z,7.05
2022-09-10T03:16:40.187Z,7.20
2022-09-10T03:17:12.413Z,6.68
2022-09-10T03:17:44.382Z,6.80
2022-09-10T03:18:16.250Z,6.25
2022-09-10T03:18:48.128Z,6.12
2022-09-10T03:19:21.009Z,6.10
2022-09-10T03:19:53.280Z,5.65
2022-09-10T03:20:26.428Z,6.00
2022-09-10T03:21:15.218Z,5.87
2022-09-10T03:21:47.617Z,6.07
2022-09-10T03:22:19.565Z,5.72
2022-09-10T03:22:51.526Z,6.15
2022-09-10T03:23:23.569Z,6.78
2022-09-10T03:23:56.989Z,6.15
2022-09-10T03:24:29.320Z,6.60
2022-09-10T03:25:01.711Z,6.50
2022-09-10T03:25:33.565Z,6.07
2022-09-10T03:26:06.287Z,5.75
2022-09-10T03:26:38.282Z,5.85
2022-09-10T03:27:10.154Z,6.43
2022-09-10T03:27:42.024Z,5.30
2022-09-10T03:28:14.025Z,5.12
2022-09-10T03:28:48.084Z,4.90
2022-09-10T03:29:21.167Z,4.97
2022-09-10T03:29:52.993Z,4.78
2022-09-10T03:30:25.988Z,4.70
2022-09-10T03:30:58.101Z,4.75
2022-09-10T03:31:31.112Z,4.40
2022-09-10T03:32:03.254Z,4.25
2022-09-10T03:32:35.141Z,3.95
2022-09-10T03:33:07.860Z,4.53
2022-09-10T03:33:41.043Z,4.55
2022-09-10T03:34:13.093Z,3.90
2022-09-10T03:34:45.973Z,4.20
2022-09-10T03:35:18.643Z,3.65
2022-09-10T03:35:54.583Z,4.47
2022-09-10T03:36:31.425Z,3.67
2022-09-10T03:37:03.897Z,3.92
2022-09-10T03:37:36.277Z,3.78
2022-09-10T03:38:08.161Z,3.67
2022-09-10T03:38:40.947Z,3.75
2022-09-10T03:39:16.308Z,3.58
2022-09-10T03:39:49.747Z,3.83
2022-09-10T03:40:23.192Z,3.50
2022-09-10T03:40:57.238Z,3.28
2022-09-10T03:41:29.645Z,3.50
2022-09-10T03:42:05.170Z,3.45
2022-09-10T03:42:38.704Z,3.30
2022-09-10T03:43:10.697Z,3.58
2022-09-10T03:43:42.919Z,3.20
2022-09-10T03:44:15.176Z,3.47
2022-09-10T03:44:47.089Z,3.67
2022-09-10T03:45:18.962Z,3.60
2022-09-10T03:45:52.198Z,3.55
2022-09-10T03:46:25.006Z,3.35
2022-09-10T03:46:57.636Z,3.30
2022-09-10T03:47:29.508Z,3.35
2022-09-10T03:48:01.419Z,3.62
2022-09-10T03:48:34.731Z,3.40
2022-09-10T03:49:08.719Z,2.92
2022-09-10T03:49:40.671Z,3.72
2022-09-10T03:50:12.638Z,2.97
2022-09-10T03:50:45.823Z,3.75
2022-09-10T03:51:17.714Z,3.62
2022-09-10T03:51:50.115Z,3.12
2022-09-10T03:52:22.795Z,3.67
2022-09-10T03:52:55.025Z,3.17
2022-09-10T03:53:27.138Z,3.03
2022-09-10T03:53:59.814Z,3.58
2022-09-10T03:54:32.015Z,3.40
2022-09-10T03:55:04.141Z,3.42
2022-09-10T03:55:36.082Z,3.80
2022-09-10T03:56:08.689Z,3.50
2022-09-10T03:56:41.502Z,3.42
2022-09-10T03:57:13.718Z,3.80
2022-09-10T03:57:45.760Z,3.30
2022-09-10T03:58:19.730Z,3.70
2022-09-10T03:58:52.237Z,3.22
2022-09-10T03:59:24.093Z,3.20
2022-09-10T03:59:58.779Z,3.53
2022-09-10T04:00:30.629Z,3.22
2022-09-10T04:01:03.254Z,3.67
2022-09-10T04:01:37.013Z,3.15
2022-09-10T04:02:10.036Z,3.62
2022-09-10T04:02:44.125Z,3.75
2022-09-10T04:03:16.430Z,3.67
2022-09-10T04:03:48.370Z,3.60
2022-09-10T04:04:20.550Z,3.58
2022-09-10T04:04:52.407Z,3.60
2022-09-10T04:05:25.936Z,4.25
2022-09-10T04:05:58.720Z,3.78
2022-09-10T04:06:33.153Z,3.55
2022-09-10T04:07:05.713Z,3.22
2022-09-10T04:07:37.916Z,3.83
2022-09-10T04:08:11.171Z,3.50
2022-09-10T04:08:46.242Z,3.75
2022-09-10T04:09:18.207Z,3.87
2022-09-10T04:09:50.137Z,3.90
2022-09-10T04:10:23.540Z,3.62
2022-09-10T04:10:57.028Z,3.67
2022-09-10T04:11:29.795Z,4.00
2022-09-10T04:12:03.715Z,4.12
2022-09-10T04:12:36.347Z,4.15
2022-09-10T04:13:09.275Z,4.00
2022-09-10T04:13:42.100Z,4.20
2022-09-10T04:14:15.695Z,4.35
2022-09-10T04:14:47.753Z,4.20
2022-09-10T04:15:21.318Z,4.03
2022-09-10T04:15:55.774Z,3.87
2022-09-10T04:16:27.878Z,4.57
2022-09-10T04:17:00.898Z,3.70
2022-09-10T04:17:34.137Z,4.25
2022-09-10T04:18:07.205Z,4.25
2022-09-10T04:18:40.714Z,4.35
2022-09-10T04:19:12.883Z,4.25
2022-09-10T04:19:45.453Z,3.97
2022-09-10T04:20:27.178Z,4.22
2022-09-10T04:20:59.536Z,4.20
2022-09-10T04:21:31.641Z,4.05
2022-09-10T04:22:03.744Z,3.90
2022-09-10T04:22:36.964Z,4.47
2022-09-10T04:23:09.354Z,3.67
2022-09-10T04:23:42.205Z,4.15
2022-09-10T04:24:14.729Z,4.40
2022-09-10T04:24:47.027Z,4.22
2022-09-10T04:25:20.085Z,3.75
2022-09-10T04:25:53.047Z,4.10
2022-09-10T04:26:25.245Z,3.72
2022-09-10T04:26:57.788Z,3.55
2022-09-10T04:27:31.002Z,3.53
2022-09-10T04:28:03.374Z,4.30
2022-09-10T04:28:35.623Z,4.12
2022-09-10T04:29:07.610Z,3.58
2022-09-10T04:29:39.499Z,4.30
2022-09-10T04:30:12.146Z,4.05
2022-09-10T04:30:44.951Z,4.25
2022-09-10T04:31:17.075Z,4.30
2022-09-10T04:31:50.758Z,4.03
2022-09-10T04:32:22.961Z,3.58
2022-09-10T04:32:55.135Z,3.87
2022-09-10T04:33:27.413Z,3.95
2022-09-10T04:34:01.475Z,4.25
2022-09-10T04:34:33.678Z,3.72
2022-09-10T04:35:07.756Z,3.80
2022-09-10T04:35:40.660Z,3.70
2022-09-10T04:36:13.432Z,4.07
2022-09-10T04:36:45.650Z,3.83
2022-09-10T04:37:19.522Z,3.62
2022-09-10T04:37:53.036Z,4.22
2022-09-10T04:38:25.354Z,3.87
2022-09-10T04:38:59.038Z,3.67
2022-09-10T04:39:31.129Z,4.20
2022-09-10T04:40:04.558Z,4.12
2022-09-10T04:40:38.868Z,4.00
2022-09-10T04:41:11.052Z,4.00
2022-09-10T04:41:43.454Z,4.40
2022-09-10T04:42:19.079Z,5.60
2022-09-10T04:42:51.598Z,5.05
2022-09-10T04:43:27.459Z,3.97
2022-09-10T04:44:00.001Z,4.50
2022-09-10T04:44:33.042Z,4.32
2022-09-10T04:45:07.181Z,4.55
2022-09-10T04:45:39.777Z,3.70
2022-09-10T04:46:11.800Z,4.68
2022-09-10T04:46:44.941Z,4.30
2022-09-10T04:47:17.917Z,4.25
2022-09-10T04:47:49.805Z,4.30
2022-09-10T04:48:24.429Z,5.45
2022-09-10T04:48:58.154Z,5.25
2022-09-10T04:49:31.005Z,5.18
2022-09-10T04:50:07.956Z,4.28
2022-09-10T04:50:53.932Z,4.45
2022-09-10T04:51:33.431Z,4.68
2022-09-10T04:52:06.242Z,4.28
2022-09-10T04:52:38.891Z,4.20
2022-09-10T04:53:12.061Z,4.57
2022-09-10T04:53:45.069Z,4.22
2022-09-10T04:54:17.201Z,4.25
2022-09-10T04:54:50.498Z,4.22
2022-09-10T04:55:22.681Z,3.72
2022-09-10T04:55:55.693Z,4.12
2022-09-10T04:56:27.792Z,4.12
2022-09-10T04:57:00.893Z,4.40
2022-09-10T04:57:33.877Z,3.58
2022-09-10T04:58:06.156Z,4.00
2022-09-10T04:58:39.338Z,3.47
2022-09-10T04:59:11.548Z,3.40
2022-09-10T04:59:43.839Z,3.50
2022-09-10T05:00:16.552Z,3.70
2022-09-10T05:00:49.353Z,3.60
2022-09-10T05:01:23.401Z,3.15
2022-09-10T05:01:55.841Z,3.10
2022-09-10T05:02:28.283Z,3.30
2022-09-10T05:03:00.347Z,2.87
2022-09-10T05:03:32.327Z,3.30
2022-09-10T05:04:04.672Z,2.83
2022-09-10T05:04:40.123Z,2.90
2022-09-10T05:05:12.090Z,2.80
2022-09-10T05:05:46.028Z,2.60
2022-09-10T05:06:18.078Z,2.25
2022-09-10T05:06:50.507Z,2.20
2022-09-10T05:07:22.422Z,2.60
2022-09-10T05:07:55.411Z,2.30
2022-09-10T05:08:27.359Z,2.35
2022-09-10T05:08:59.505Z,2.37
2022-09-10T05:09:31.606Z,2.45
2022-09-10T05:10:03.893Z,2.35
2022-09-10T05:10:38.915Z,2.53
2022-09-10T05:11:11.542Z,2.00
2022-09-10T05:11:44.093Z,2.37
2022-09-10T05:12:16.675Z,2.03
2022-09-10T05:12:48.695Z,1.95
2022-09-10T05:13:21.096Z,2.37
2022-09-10T05:13:53.954Z,2.30
2022-09-10T05:14:27.293Z,2.20
2022-09-10T05:14:59.697Z,1.92
2022-09-10T05:15:31.915Z,2.35
2022-09-10T05:16:04.067Z,2.20
2022-09-10T05:16:37.375Z,2.10
2022-09-10T05:17:09.677Z,2.25
2022-09-10T05:17:41.545Z,1.77
2022-09-10T05:18:13.461Z,2.10
2022-09-10T05:18:45.405Z,2.20
2022-09-10T05:19:18.025Z,1.95
2022-09-10T05:19:50.297Z,2.30
2022-09-10T05:20:24.019Z,2.50
2022-09-10T05:20:56.086Z,2.00
2022-09-10T05:21:29.405Z,2.22
2022-09-10T05:22:01.570Z,2.03
2022-09-10T05:22:40.638Z,1.95
2022-09-10T05:23:12.978Z,1.90
2022-09-10T05:23:45.314Z,1.77
2022-09-10T05:24:17.470Z,1.80
2022-09-10T05:24:49.755Z,2.00
2022-09-10T05:25:23.276Z,1.90
2022-09-10T05:25:56.764Z,1.75
2022-09-10T05:26:31.475Z,1.40
2022-09-10T05:27:05.346Z,1.80
2022-09-10T05:27:40.535Z,1.73
2022-09-10T05:28:15.100Z,1.60
2022-09-10T05:28:49.298Z,1.70
2022-09-10T05:29:23.123Z,1.50
2022-09-10T05:29:59.267Z,1.70
2022-09-10T05:30:33.008Z,1.50
2022-09-10T05:31:10.414Z,1.42
2022-09-10T05:31:43.679Z,1.77
2022-09-10T05:32:15.912Z,1.50
2022-09-10T05:32:47.840Z,1.70
2022-09-10T05:33:20.005Z,1.70
2022-09-10T05:33:51.876Z,1.60
2022-09-10T05:34:24.663Z,1.80
2022-09-10T05:34:57.312Z,1.50
2022-09-10T05:35:32.060Z,1.73
2022-09-10T05:36:05.244Z,1.70
2022-09-10T05:36:37.156Z,1.33
2022-09-10T05:37:09.289Z,1.52
2022-09-10T05:37:41.824Z,1.62
2022-09-10T05:38:13.921Z,1.45
2022-09-10T05:38:46.890Z,1.70
2022-09-10T05:39:20.307Z,1.73
2022-09-10T05:39:52.354Z,1.40
2022-09-10T05:40:25.417Z,1.80
2022-09-10T05:40:57.857Z,1.70
2022-09-10T05:41:31.207Z,1.67
2022-09-10T05:42:03.867Z,1.83
2022-09-10T05:42:36.012Z,1.40
2022-09-10T05:43:08.261Z,1.52
2022-09-10T05:43:42.090Z,1.33
2022-09-10T05:44:15.137Z,1.30
2022-09-10T05:44:47.240Z,1.48
2022-09-10T05:45:20.333Z,1.50
2022-09-10T05:45:52.435Z,1.30
2022-09-10T05:46:25.435Z,1.40
2022-09-10T05:46:59.851Z,1.30
2022-09-10T05:47:33.340Z,1.27
2022-09-10T05:48:05.533Z,1.60
2022-09-10T05:48:41.878Z,1.30
2022-09-10T05:49:14.650Z,1.40
2022-09-10T05:49:47.943Z,1.17
2022-09-10T05:50:20.690Z,1.33
2022-09-10T05:50:52.720Z,1.40
2022-09-10T05:51:29.825Z,1.70
2022-09-10T05:52:02.420Z,1.42
2022-09-10T05:52:34.392Z,1.50
2022-09-10T05:53:07.199Z,1.30
2022-09-10T05:53:41.545Z,1.45
2022-09-10T05:54:13.454Z,1.30
2022-09-10T05:54:45.457Z,1.30
2022-09-10T05:55:18.068Z,1.80
2022-09-10T05:55:54.132Z,1.70
2022-09-10T05:56:27.151Z,1.40
2022-09-10T05:56:59.174Z,1.85
2022-09-10T05:57:31.250Z,1.75
2022-09-10T05:58:03.589Z,1.58
2022-09-10T05:58:35.747Z,1.48
2022-09-10T05:59:10.131Z,1.40
2022-09-10T05:59:42.476Z,1.50
2022-09-10T06:00:16.035Z,1.55
2022-09-10T06:00:51.249Z,1.30
2022-09-10T06:01:23.573Z,1.33
2022-09-10T06:01:55.727Z,1.35
2022-09-10T06:02:29.505Z,1.75
2022-09-10T06:03:02.395Z,1.45
2022-09-10T06:03:38.034Z,1.40
2022-09-10T06:04:11.251Z,1.37
2022-09-10T06:04:43.366Z,1.20
2022-09-10T06:05:15.314Z,1.27
2022-09-10T06:05:51.594Z,1.40
2022-09-10T06:06:28.559Z,1.50
2022-09-10T06:07:01.888Z,1.00
2022-09-10T06:07:34.869Z,1.40
2022-09-10T06:08:09.021Z,1.40
2022-09-10T06:08:41.777Z,1.70
2022-09-10T06:09:14.503Z,1.20
2022-09-10T06:09:47.394Z,1.58
2022-09-10T06:10:20.018Z,1.42
2022-09-10T06:11:00.337Z,1.45
2022-09-10T06:11:32.649Z,1.23
2022-09-10T06:12:06.652Z,1.20
2022-09-10T06:12:38.801Z,1.58
2022-09-10T06:13:11.414Z,1.40
2022-09-10T06:13:43.263Z,1.40
2022-09-10T06:14:15.807Z,1.42
2022-09-10T06:14:47.730Z,1.37
2022-09-10T06:15:21.217Z,1.35
2022-09-10T06:15:54.424Z,1.60
2022-09-10T06:16:27.298Z,1.40
2022-09-10T06:16:59.831Z,1.33
2022-09-10T06:17:33.657Z,1.90
2022-09-10T06:18:07.210Z,1.50
2022-09-10T06:18:39.250Z,1.48
2022-09-10T06:19:11.769Z,1.40
2022-09-10T06:19:44.647Z,1.65
2022-09-10T06:20:16.597Z,1.73
2022-09-10T06:20:49.105Z,1.50
2022-09-10T06:21:24.965Z,1.25
2022-09-10T06:21:59.759Z,1.60
2022-09-10T06:22:32.068Z,1.30
2022-09-10T06:23:03.894Z,1.40
2022-09-10T06:23:42.352Z,1.50
2022-09-10T06:24:14.830Z,1.90
2022-09-10T06:24:49.123Z,1.62
2022-09-10T06:25:22.003Z,1.35
2022-09-10T06:26:04.516Z,1.55
2022-09-10T06:26:42.790Z,1.50
2022-09-10T06:27:16.185Z,1.58
2022-09-10T06:27:48.376Z,1.60
2022-09-10T06:28:20.611Z,1.73
2022-09-10T06:28:53.419Z,1.60
2022-09-10T06:29:25.288Z,1.60
2022-09-10T06:29:57.080Z,1.40
2022-09-10T06:30:29.649Z,1.48
2022-09-10T06:31:04.378Z,1.60
2022-09-10T06:31:37.011Z,1.62
2022-09-10T06:32:10.120Z,1.50
2022-09-10T06:32:42.317Z,1.58
2022-09-10T06:33:16.780Z,1.62
2022-09-10T06:33:49.627Z,1.60
2022-09-10T06:34:22.082Z,1.85
2022-09-10T06:34:54.024Z,1.65
2022-09-10T06:35:27.215Z,2.15
2022-09-10T06:36:01.909Z,1.58
2022-09-10T06:36:33.989Z,1.70
2022-09-10T06:37:06.472Z,1.65
2022-09-10T06:37:39.918Z,1.60
2022-09-10T06:38:13.024Z,1.50
2022-09-10T06:38:45.180Z,1.80
2022-09-10T06:39:17.560Z,1.55
2022-09-10T06:39:50.977Z,1.55
2022-09-10T06:40:23.139Z,1.65
2022-09-10T06:40:56.676Z,1.90
2022-09-10T06:41:30.455Z,1.73
2022-09-10T06:42:02.515Z,1.70
2022-09-10T06:42:34.766Z,1.67
2022-09-10T06:43:07.697Z,1.70
2022-09-10T06:43:42.383Z,1.77
2022-09-10T06:44:14.475Z,1.73
2022-09-10T06:44:46.449Z,1.50
2022-09-10T06:45:18.853Z,1.90
2022-09-10T06:45:53.142Z,1.50
2022-09-10T06:47:02.342Z,2.35
2022-09-10T06:49:06.200Z,1.70
2022-09-10T06:49:38.677Z,1.60
2022-09-10T06:50:10.592Z,1.90
2022-09-10T06:50:53.458Z,1.80
2022-09-10T06:51:26.924Z,1.70
2022-09-10T06:51:59.070Z,1.75
2022-09-10T06:52:31.262Z,1.62
2022-09-10T06:53:03.572Z,1.73
2022-09-10T06:53:36.726Z,1.90
2022-09-10T06:54:09.346Z,1.70
2022-09-10T06:54:42.381Z,1.95
2022-09-10T06:55:15.511Z,2.05
2022-09-10T06:55:52.113Z,1.77
2022-09-10T06:56:24.426Z,2.00
2022-09-10T06:56:57.891Z,1.70
2022-09-10T06:57:29.931Z,1.60
2022-09-10T06:58:01.792Z,1.77
2022-09-10T06:58:35.421Z,1.90
2022-09-10T06:59:08.658Z,1.85
2022-09-10T06:59:41.721Z,2.05
2022-09-10T07:00:14.251Z,1.70
2022-09-10T07:00:48.061Z,2.05
2022-09-10T07:01:23.865Z,2.10
2022-09-10T07:01:56.110Z,1.80
2022-09-10T07:02:28.163Z,2.20
2022-09-10T07:03:01.101Z,1.95
2022-09-10T07:03:33.051Z,1.55
2022-09-10T07:04:06.477Z,2.25
2022-09-10T07:04:38.356Z,2.10
2022-09-10T07:05:10.598Z,1.75
2022-09-10T07:05:47.830Z,1.75
2022-09-10T07:06:19.824Z,2.00
2022-09-10T07:06:52.055Z,1.80
2022-09-10T07:07:24.169Z,1.55
2022-09-10T07:07:56.278Z,1.70
2022-09-10T07:08:29.189Z,1.73
2022-09-10T07:09:02.917Z,1.70
2022-09-10T07:09:37.649Z,1.80
2022-09-10T07:10:10.264Z,1.80
2022-09-10T07:10:44.885Z,1.80
2022-09-10T07:11:16.856Z,1.70
2022-09-10T07:11:48.972Z,1.75
2022-09-10T07:12:21.629Z,1.60
2022-09-10T07:12:54.699Z,1.87
2022-09-10T07:13:27.470Z,1.67
2022-09-10T07:14:01.381Z,1.80
2022-09-10T07:14:33.771Z,2.00
2022-09-10T07:15:06.868Z,1.80
2022-09-10T07:15:47.029Z,1.70
2022-09-10T07:16:25.749Z,1.70
2022-09-10T07:16:57.881Z,1.70
2022-09-10T07:17:32.073Z,1.70
2022-09-10T07:18:05.416Z,1.65
2022-09-10T07:18:41.581Z,1.60
2022-09-10T07:19:17.573Z,1.95
2022-09-10T07:19:50.769Z,1.60
2022-09-10T07:20:26.576Z,1.50
2022-09-10T07:21:14.318Z,1.80
2022-09-10T07:21:52.747Z,2.00
2022-09-10T07:22:26.854Z,1.90
2022-09-10T07:23:01.080Z,2.30
2022-09-10T07:23:37.399Z,2.22
2022-09-10T07:24:12.858Z,2.92
2022-09-10T07:24:50.411Z,2.45
2022-09-10T07:25:26.909Z,2.95
2022-09-10T07:26:10.408Z,2.67
2022-09-10T07:26:42.687Z,2.28
2022-09-10T07:27:15.618Z,2.40
2022-09-10T07:27:47.973Z,2.28
2022-09-10T07:28:19.884Z,1.95
2022-09-10T07:28:54.003Z,2.30
2022-09-10T07:29:26.244Z,1.73
2022-09-10T07:29:59.008Z,1.90
2022-09-10T07:30:36.256Z,1.80
2022-09-10T07:31:18.720Z,2.08
2022-09-10T07:31:51.800Z,2.10
2022-09-10T07:32:25.111Z,2.58
2022-09-10T07:32:59.114Z,2.30
2022-09-10T07:33:31.318Z,2.28
2022-09-10T07:34:04.139Z,2.50
2022-09-10T07:34:37.710Z,2.22
2022-09-10T07:35:11.181Z,1.70
2022-09-10T07:35:44.130Z,1.87
2022-09-10T07:36:17.931Z,1.90
2022-09-10T07:36:50.709Z,1.70
2022-09-10T07:37:23.636Z,1.80
2022-09-10T07:37:55.703Z,1.75
2022-09-10T07:38:28.856Z,1.67
2022-09-10T07:39:04.152Z,1.80
2022-09-10T07:39:36.277Z,1.90
2022-09-10T07:40:08.752Z,1.70
2022-09-10T07:40:41.610Z,1.80
2022-09-10T07:41:15.398Z,1.80
2022-09-10T07:41:47.622Z,1.95
2022-09-10T07:42:20.421Z,1.92